sensor_id;sensor_type;location;lat;lon;timestamp;P1;durP1;ratioP1;P2;durP2;ratioP2
40290;SDS011;26000;48.304;13.626;2022-08-19T00:01:52;12.30;;;11.02;;
40290;SDS011;26000;48.304;13.626;2022-08-19T00:04:21;13.35;;;10.80;;
40290;SDS011;26000;48.304;13.626;2022-08-19T00:06:49;12.82;;;11.43;;
40290;SDS011;26000;48.304;13.626;2022-08-19T00:09:16;12.05;;;10.85;;
40290;SDS011;26000;48.304;13.626;2022-08-19T00:11:44;12.20;;;10.60;;
40290;SDS011;26000;48.304;13.626;2022-08-19T00:14:11;12.23;;;10.75;;
40290;SDS011;26000;48.304;13.626;2022-08-19T00:16:39;11.73;;;10.38;;
40290;SDS011;26000;48.304;13.626;2022-08-19T00:19:06;12.02;;;10.45;;
40290;SDS011;26000;48.304;13.626;2022-08-19T00:21:32;13.13;;;10.30;;
40290;SDS011;26000;48.304;13.626;2022-08-19T00:24:03;13.85;;;9.60;;
40290;SDS011;26000;48.304;13.626;2022-08-19T00:26:29;13.10;;;9.85;;
40290;SDS011;26000;48.304;13.626;2022-08-19T00:28:55;11.45;;;10.23;;
40290;SDS011;26000;48.304;13.626;2022-08-19T00:31:21;11.75;;;8.93;;
40290;SDS011;26000;48.304;13.626;2022-08-19T00:33:47;10.38;;;9.27;;
40290;SDS011;26000;48.304;13.626;2022-08-19T00:36:15;10.93;;;9.82;;
40290;SDS011;26000;48.304;13.626;2022-08-19T00:38:41;9.80;;;8.80;;
40290;SDS011;26000;48.304;13.626;2022-08-19T00:41:08;13.05;;;9.10;;
40290;SDS011;26000;48.304;13.626;2022-08-19T00:43:35;10.75;;;9.20;;
40290;SDS011;26000;48.304;13.626;2022-08-19T00:46:01;11.40;;;9.00;;
40290;SDS011;26000;48.304;13.626;2022-08-19T00:48:30;10.27;;;8.95;;
40290;SDS011;26000;48.304;13.626;2022-08-19T00:50:57;9.65;;;8.65;;
40290;SDS011;26000;48.304;13.626;2022-08-19T00:53:24;9.45;;;8.48;;
40290;SDS011;26000;48.304;13.626;2022-08-19T00:55:53;10.63;;;8.35;;
40290;SDS011;26000;48.304;13.626;2022-08-19T00:58:24;11.15;;;8.93;;
40290;SDS011;26000;48.304;13.626;2022-08-19T01:00:53;9.80;;;8.80;;
40290;SDS011;26000;48.304;13.626;2022-08-19T01:03:20;10.15;;;9.10;;
40290;SDS011;26000;48.304;13.626;2022-08-19T01:05:46;9.80;;;8.80;;
40290;SDS011;26000;48.304;13.626;2022-08-19T01:08:14;11.57;;;9.43;;
40290;SDS011;26000;48.304;13.626;2022-08-19T01:10:59;11.27;;;9.35;;
40290;SDS011;26000;48.304;13.626;2022-08-19T01:13:26;9.98;;;8.98;;
40290;SDS011;26000;48.304;13.626;2022-08-19T01:15:57;11.30;;;10.07;;
40290;SDS011;26000;48.304;13.626;2022-08-19T01:18:30;11.60;;;10.00;;
40290;SDS011;26000;48.304;13.626;2022-08-19T01:21:02;10.10;;;9.07;;
40290;SDS011;26000;48.304;13.626;2022-08-19T01:23:32;11.82;;;9.52;;
40290;SDS011;26000;48.304;13.626;2022-08-19T01:26:09;11.95;;;10.02;;
40290;SDS011;26000;48.304;13.626;2022-08-19T01:28:37;11.00;;;8.88;;
40290;SDS011;26000;48.304;13.626;2022-08-19T01:31:03;10.35;;;9.30;;
40290;SDS011;26000;48.304;13.626;2022-08-19T01:33:29;11.68;;;10.48;;
40290;SDS011;26000;48.304;13.626;2022-08-19T01:36:22;11.20;;;10.00;;
40290;SDS011;26000;48.304;13.626;2022-08-19T01:39:03;11.63;;;9.32;;
40290;SDS011;26000;48.304;13.626;2022-08-19T01:41:32;11.52;;;10.35;;
40290;SDS011;26000;48.304;13.626;2022-08-19T01:43:58;11.98;;;10.20;;
40290;SDS011;26000;48.304;13.626;2022-08-19T01:46:24;10.30;;;9.23;;
40290;SDS011;26000;48.304;13.626;2022-08-19T01:48:49;10.93;;;9.82;;
40290;SDS011;26000;48.304;13.626;2022-08-19T01:51:15;10.88;;;9.77;;
40290;SDS011;26000;48.304;13.626;2022-08-19T01:53:41;10.63;;;9.10;;
40290;SDS011;26000;48.304;13.626;2022-08-19T01:56:07;10.35;;;9.35;;
40290;SDS011;26000;48.304;13.626;2022-08-19T01:58:38;10.77;;;9.55;;
40290;SDS011;26000;48.304;13.626;2022-08-19T02:01:06;11.77;;;9.48;;
40290;SDS011;26000;48.304;13.626;2022-08-19T02:03:33;9.98;;;8.95;;
40290;SDS011;26000;48.304;13.626;2022-08-19T02:06:02;10.20;;;9.07;;
40290;SDS011;26000;48.304;13.626;2022-08-19T02:08:30;11.07;;;8.70;;
40290;SDS011;26000;48.304;13.626;2022-08-19T02:10:57;10.55;;;9.45;;
40290;SDS011;26000;48.304;13.626;2022-08-19T02:13:24;10.88;;;9.70;;
40290;SDS011;26000;48.304;13.626;2022-08-19T02:15:50;8.90;;;8.00;;
40290;SDS011;26000;48.304;13.626;2022-08-19T02:18:16;11.45;;;8.90;;
40290;SDS011;26000;48.304;13.626;2022-08-19T02:20:43;10.00;;;8.90;;
40290;SDS011;26000;48.304;13.626;2022-08-19T02:23:10;9.48;;;8.55;;
40290;SDS011;26000;48.304;13.626;2022-08-19T02:25:37;11.82;;;9.55;;
40290;SDS011;26000;48.304;13.626;2022-08-19T02:28:03;10.18;;;8.60;;
40290;SDS011;26000;48.304;13.626;2022-08-19T02:30:29;11.07;;;9.40;;
40290;SDS011;26000;48.304;13.626;2022-08-19T02:32:55;13.35;;;9.75;;
40290;SDS011;26000;48.304;13.626;2022-08-19T02:35:21;10.80;;;9.70;;
40290;SDS011;26000;48.304;13.626;2022-08-19T02:37:47;13.30;;;10.57;;
40290;SDS011;26000;48.304;13.626;2022-08-19T02:40:32;11.23;;;10.13;;
40290;SDS011;26000;48.304;13.626;2022-08-19T02:42:59;12.48;;;10.73;;
40290;SDS011;26000;48.304;13.626;2022-08-19T02:48:02;13.65;;;11.73;;
40290;SDS011;26000;48.304;13.626;2022-08-19T02:50:29;15.80;;;13.27;;
40290;SDS011;26000;48.304;13.626;2022-08-19T02:52:55;16.42;;;14.48;;
40290;SDS011;26000;48.304;13.626;2022-08-19T02:55:20;19.75;;;15.32;;
40290;SDS011;26000;48.304;13.626;2022-08-19T02:57:46;19.83;;;14.27;;
40290;SDS011;26000;48.304;13.626;2022-08-19T03:00:12;19.20;;;15.90;;
40290;SDS011;26000;48.304;13.626;2022-08-19T03:02:38;21.00;;;15.68;;
40290;SDS011;26000;48.304;13.626;2022-08-19T03:05:05;18.25;;;15.45;;
40290;SDS011;26000;48.304;13.626;2022-08-19T03:07:31;18.90;;;15.73;;
40290;SDS011;26000;48.304;13.626;2022-08-19T03:09:57;22.88;;;17.50;;
40290;SDS011;26000;48.304;13.626;2022-08-19T03:12:23;20.80;;;16.90;;
40290;SDS011;26000;48.304;13.626;2022-08-19T03:14:48;22.23;;;17.98;;
40290;SDS011;26000;48.304;13.626;2022-08-19T03:17:14;22.15;;;18.00;;
40290;SDS011;26000;48.304;13.626;2022-08-19T03:19:40;26.42;;;20.20;;
40290;SDS011;26000;48.304;13.626;2022-08-19T03:22:05;22.95;;;18.17;;
40290;SDS011;26000;48.304;13.626;2022-08-19T03:24:31;21.15;;;16.50;;
40290;SDS011;26000;48.304;13.626;2022-08-19T03:26:57;22.02;;;17.48;;
40290;SDS011;26000;48.304;13.626;2022-08-19T03:29:24;20.70;;;18.13;;
40290;SDS011;26000;48.304;13.626;2022-08-19T03:31:51;21.15;;;18.40;;
40290;SDS011;26000;48.304;13.626;2022-08-19T03:34:19;21.50;;;17.38;;
40290;SDS011;26000;48.304;13.626;2022-08-19T03:36:54;22.92;;;18.55;;
40290;SDS011;26000;48.304;13.626;2022-08-19T03:39:21;22.15;;;18.98;;
40290;SDS011;26000;48.304;13.626;2022-08-19T03:41:48;24.60;;;20.05;;
40290;SDS011;26000;48.304;13.626;2022-08-19T03:44:19;23.83;;;20.00;;
40290;SDS011;26000;48.304;13.626;2022-08-19T03:46:54;22.42;;;18.13;;
40290;SDS011;26000;48.304;13.626;2022-08-19T03:49:23;21.35;;;18.00;;
40290;SDS011;26000;48.304;13.626;2022-08-19T03:51:52;23.92;;;18.17;;
40290;SDS011;26000;48.304;13.626;2022-08-19T03:54:19;25.35;;;17.55;;
40290;SDS011;26000;48.304;13.626;2022-08-19T03:56:48;19.90;;;16.40;;
40290;SDS011;26000;48.304;13.626;2022-08-19T03:59:20;20.38;;;17.00;;
40290;SDS011;26000;48.304;13.626;2022-08-19T04:01:54;17.92;;;15.32;;
40290;SDS011;26000;48.304;13.626;2022-08-19T04:04:22;22.10;;;18.02;;
40290;SDS011;26000;48.304;13.626;2022-08-19T04:06:48;19.65;;;17.33;;
40290;SDS011;26000;48.304;13.626;2022-08-19T04:09:14;20.52;;;17.30;;
40290;SDS011;26000;48.304;13.626;2022-08-19T04:11:41;19.25;;;16.30;;
40290;SDS011;26000;48.304;13.626;2022-08-19T04:14:09;21.17;;;15.60;;
40290;SDS011;26000;48.304;13.626;2022-08-19T04:16:36;19.00;;;16.08;;
40290;SDS011;26000;48.304;13.626;2022-08-19T04:19:03;18.75;;;15.60;;
40290;SDS011;26000;48.304;13.626;2022-08-19T04:21:30;20.85;;;16.48;;
40290;SDS011;26000;48.304;13.626;2022-08-19T04:23:56;19.02;;;16.23;;
40290;SDS011;26000;48.304;13.626;2022-08-19T04:26:24;18.17;;;16.13;;
40290;SDS011;26000;48.304;13.626;2022-08-19T04:29:00;20.38;;;16.65;;
40290;SDS011;26000;48.304;13.626;2022-08-19T04:31:30;20.27;;;16.35;;
40290;SDS011;26000;48.304;13.626;2022-08-19T04:34:00;20.52;;;16.33;;
40290;SDS011;26000;48.304;13.626;2022-08-19T04:36:28;18.30;;;15.80;;
40290;SDS011;26000;48.304;13.626;2022-08-19T04:38:57;18.27;;;15.95;;
40290;SDS011;26000;48.304;13.626;2022-08-19T04:41:26;19.65;;;16.10;;
40290;SDS011;26000;48.304;13.626;2022-08-19T04:44:11;19.67;;;16.63;;
40290;SDS011;26000;48.304;13.626;2022-08-19T04:46:37;19.90;;;16.58;;
40290;SDS011;26000;48.304;13.626;2022-08-19T04:49:04;22.67;;;17.67;;
40290;SDS011;26000;48.304;13.626;2022-08-19T04:51:30;21.50;;;17.02;;
40290;SDS011;26000;48.304;13.626;2022-08-19T04:53:57;23.60;;;18.30;;
40290;SDS011;26000;48.304;13.626;2022-08-19T04:56:24;24.35;;;19.75;;
40290;SDS011;26000;48.304;13.626;2022-08-19T04:58:51;20.85;;;17.42;;
40290;SDS011;26000;48.304;13.626;2022-08-19T05:01:20;20.95;;;16.77;;
40290;SDS011;26000;48.304;13.626;2022-08-19T05:03:50;20.45;;;17.02;;
40290;SDS011;26000;48.304;13.626;2022-08-19T05:06:17;19.70;;;16.20;;
40290;SDS011;26000;48.304;13.626;2022-08-19T05:08:44;21.38;;;17.00;;
40290;SDS011;26000;48.304;13.626;2022-08-19T05:11:12;20.20;;;16.63;;
40290;SDS011;26000;48.304;13.626;2022-08-19T05:13:43;17.23;;;15.23;;
40290;SDS011;26000;48.304;13.626;2022-08-19T05:16:10;20.02;;;16.77;;
40290;SDS011;26000;48.304;13.626;2022-08-19T05:18:37;20.98;;;17.25;;
40290;SDS011;26000;48.304;13.626;2022-08-19T05:21:23;22.90;;;18.70;;
40290;SDS011;26000;48.304;13.626;2022-08-19T05:24:08;20.88;;;16.70;;
40290;SDS011;26000;48.304;13.626;2022-08-19T05:26:37;20.15;;;16.80;;
40290;SDS011;26000;48.304;13.626;2022-08-19T05:29:03;19.10;;;16.80;;
40290;SDS011;26000;48.304;13.626;2022-08-19T05:31:30;22.35;;;16.80;;
40290;SDS011;26000;48.304;13.626;2022-08-19T05:33:56;22.70;;;18.00;;
40290;SDS011;26000;48.304;13.626;2022-08-19T05:36:24;19.77;;;16.77;;
40290;SDS011;26000;48.304;13.626;2022-08-19T05:38:53;21.08;;;18.35;;
40290;SDS011;26000;48.304;13.626;2022-08-19T05:41:20;22.67;;;18.83;;
40290;SDS011;26000;48.304;13.626;2022-08-19T05:43:49;21.83;;;18.00;;
40290;SDS011;26000;48.304;13.626;2022-08-19T05:46:17;18.77;;;16.27;;
40290;SDS011;26000;48.304;13.626;2022-08-19T05:48:43;30.63;;;18.35;;
40290;SDS011;26000;48.304;13.626;2022-08-19T05:51:09;22.25;;;16.08;;
40290;SDS011;26000;48.304;13.626;2022-08-19T05:53:35;20.13;;;17.90;;
40290;SDS011;26000;48.304;13.626;2022-08-19T05:56:09;20.05;;;17.30;;
40290;SDS011;26000;48.304;13.626;2022-08-19T05:58:37;24.23;;;16.13;;
40290;SDS011;26000;48.304;13.626;2022-08-19T06:01:04;22.67;;;17.23;;
40290;SDS011;26000;48.304;13.626;2022-08-19T06:03:35;21.77;;;16.88;;
40290;SDS011;26000;48.304;13.626;2022-08-19T06:06:02;18.88;;;16.40;;
40290;SDS011;26000;48.304;13.626;2022-08-19T06:08:30;19.13;;;16.65;;
40290;SDS011;26000;48.304;13.626;2022-08-19T06:10:57;23.58;;;18.08;;
40290;SDS011;26000;48.304;13.626;2022-08-19T06:13:36;18.25;;;16.23;;
40290;SDS011;26000;48.304;13.626;2022-08-19T06:16:01;19.23;;;15.82;;
40290;SDS011;26000;48.304;13.626;2022-08-19T06:18:27;21.38;;;17.85;;
40290;SDS011;26000;48.304;13.626;2022-08-19T06:20:52;19.55;;;15.98;;
40290;SDS011;26000;48.304;13.626;2022-08-19T06:23:18;20.20;;;16.23;;
40290;SDS011;26000;48.304;13.626;2022-08-19T06:25:45;23.55;;;19.65;;
40290;SDS011;26000;48.304;13.626;2022-08-19T06:28:10;21.27;;;16.95;;
40290;SDS011;26000;48.304;13.626;2022-08-19T06:30:36;17.10;;;15.30;;
40290;SDS011;26000;48.304;13.626;2022-08-19T06:33:02;20.13;;;17.65;;
40290;SDS011;26000;48.304;13.626;2022-08-19T06:35:27;24.30;;;16.73;;
40290;SDS011;26000;48.304;13.626;2022-08-19T06:37:54;21.63;;;17.50;;
40290;SDS011;26000;48.304;13.626;2022-08-19T06:40:20;19.52;;;17.08;;
40290;SDS011;26000;48.304;13.626;2022-08-19T06:42:46;21.15;;;16.55;;
40290;SDS011;26000;48.304;13.626;2022-08-19T06:45:11;20.63;;;17.60;;
40290;SDS011;26000;48.304;13.626;2022-08-19T06:47:37;17.23;;;15.02;;
40290;SDS011;26000;48.304;13.626;2022-08-19T06:50:03;17.08;;;14.68;;
40290;SDS011;26000;48.304;13.626;2022-08-19T06:52:33;18.75;;;16.05;;
40290;SDS011;26000;48.304;13.626;2022-08-19T06:55:00;19.05;;;15.75;;
40290;SDS011;26000;48.304;13.626;2022-08-19T06:57:27;16.58;;;14.70;;
40290;SDS011;26000;48.304;13.626;2022-08-19T06:59:57;19.88;;;15.73;;
40290;SDS011;26000;48.304;13.626;2022-08-19T07:02:25;23.67;;;19.38;;
40290;SDS011;26000;48.304;13.626;2022-08-19T07:04:52;20.00;;;17.45;;
40290;SDS011;26000;48.304;13.626;2022-08-19T07:07:18;20.73;;;18.10;;
40290;SDS011;26000;48.304;13.626;2022-08-19T07:09:45;21.00;;;17.15;;
40290;SDS011;26000;48.304;13.626;2022-08-19T07:12:12;21.10;;;16.52;;
40290;SDS011;26000;48.304;13.626;2022-08-19T07:14:41;20.02;;;16.67;;
40290;SDS011;26000;48.304;13.626;2022-08-19T07:17:08;21.90;;;18.25;;
40290;SDS011;26000;48.304;13.626;2022-08-19T07:19:36;20.90;;;17.05;;
40290;SDS011;26000;48.304;13.626;2022-08-19T07:22:03;22.27;;;17.00;;
40290;SDS011;26000;48.304;13.626;2022-08-19T07:24:30;18.63;;;16.58;;
40290;SDS011;26000;48.304;13.626;2022-08-19T07:26:57;23.13;;;19.13;;
40290;SDS011;26000;48.304;13.626;2022-08-19T07:29:29;18.80;;;15.88;;
40290;SDS011;26000;48.304;13.626;2022-08-19T07:31:58;21.65;;;18.63;;
40290;SDS011;26000;48.304;13.626;2022-08-19T07:34:24;19.48;;;17.20;;
40290;SDS011;26000;48.304;13.626;2022-08-19T07:36:52;18.55;;;15.98;;
40290;SDS011;26000;48.304;13.626;2022-08-19T07:39:23;21.15;;;17.25;;
40290;SDS011;26000;48.304;13.626;2022-08-19T07:41:51;20.63;;;17.35;;
40290;SDS011;26000;48.304;13.626;2022-08-19T07:44:18;21.10;;;17.17;;
40290;SDS011;26000;48.304;13.626;2022-08-19T07:46:47;20.58;;;16.25;;
40290;SDS011;26000;48.304;13.626;2022-08-19T07:49:15;17.95;;;16.02;;
40290;SDS011;26000;48.304;13.626;2022-08-19T07:51:48;19.23;;;16.58;;
40290;SDS011;26000;48.304;13.626;2022-08-19T07:54:17;21.27;;;18.27;;
40290;SDS011;26000;48.304;13.626;2022-08-19T07:56:44;20.50;;;18.30;;
40290;SDS011;26000;48.304;13.626;2022-08-19T07:59:10;23.20;;;18.20;;
40290;SDS011;26000;48.304;13.626;2022-08-19T08:01:37;20.65;;;17.77;;
40290;SDS011;26000;48.304;13.626;2022-08-19T08:04:05;19.83;;;17.45;;
40290;SDS011;26000;48.304;13.626;2022-08-19T08:06:50;28.60;;;19.67;;
40290;SDS011;26000;48.304;13.626;2022-08-19T08:09:36;24.97;;;19.77;;
40290;SDS011;26000;48.304;13.626;2022-08-19T08:12:05;21.70;;;18.15;;
40290;SDS011;26000;48.304;13.626;2022-08-19T08:14:34;20.58;;;18.38;;
40290;SDS011;26000;48.304;13.626;2022-08-19T08:17:06;17.77;;;15.30;;
40290;SDS011;26000;48.304;13.626;2022-08-19T08:19:32;22.40;;;18.70;;
40290;SDS011;26000;48.304;13.626;2022-08-19T08:22:00;18.42;;;16.27;;
40290;SDS011;26000;48.304;13.626;2022-08-19T08:24:27;20.52;;;16.92;;
40290;SDS011;26000;48.304;13.626;2022-08-19T08:26:55;20.77;;;17.70;;
40290;SDS011;26000;48.304;13.626;2022-08-19T08:29:23;21.08;;;18.58;;
40290;SDS011;26000;48.304;13.626;2022-08-19T08:31:53;21.05;;;17.35;;
40290;SDS011;26000;48.304;13.626;2022-08-19T08:34:19;19.98;;;17.67;;
40290;SDS011;26000;48.304;13.626;2022-08-19T08:36:45;18.92;;;16.88;;
40290;SDS011;26000;48.304;13.626;2022-08-19T08:39:16;20.33;;;17.73;;
40290;SDS011;26000;48.304;13.626;2022-08-19T08:47:13;20.58;;;17.27;;
40290;SDS011;26000;48.304;13.626;2022-08-19T08:49:54;22.85;;;18.25;;
40290;SDS011;26000;48.304;13.626;2022-08-19T08:52:36;20.70;;;17.67;;
40290;SDS011;26000;48.304;13.626;2022-08-19T08:55:11;17.95;;;15.68;;
40290;SDS011;26000;48.304;13.626;2022-08-19T09:02:58;19.80;;;16.90;;
40290;SDS011;26000;48.304;13.626;2022-08-19T09:05:30;22.52;;;18.35;;
40290;SDS011;26000;48.304;13.626;2022-08-19T09:08:17;20.75;;;18.38;;
40290;SDS011;26000;48.304;13.626;2022-08-19T09:10:55;18.85;;;15.90;;
40290;SDS011;26000;48.304;13.626;2022-08-19T09:15:55;19.20;;;17.10;;
40290;SDS011;26000;48.304;13.626;2022-08-19T09:18:46;20.38;;;17.85;;
40290;SDS011;26000;48.304;13.626;2022-08-19T09:21:20;21.52;;;18.42;;
40290;SDS011;26000;48.304;13.626;2022-08-19T09:23:47;17.20;;;14.63;;
40290;SDS011;26000;48.304;13.626;2022-08-19T09:26:15;19.48;;;17.30;;
40290;SDS011;26000;48.304;13.626;2022-08-19T09:28:45;22.65;;;18.45;;
40290;SDS011;26000;48.304;13.626;2022-08-19T09:31:20;22.35;;;17.17;;
40290;SDS011;26000;48.304;13.626;2022-08-19T09:33:47;22.73;;;19.23;;
40290;SDS011;26000;48.304;13.626;2022-08-19T09:36:15;19.35;;;17.30;;
40290;SDS011;26000;48.304;13.626;2022-08-19T09:38:43;21.30;;;18.70;;
40290;SDS011;26000;48.304;13.626;2022-08-19T09:41:14;21.45;;;18.92;;
40290;SDS011;26000;48.304;13.626;2022-08-19T09:43:42;22.52;;;19.70;;
40290;SDS011;26000;48.304;13.626;2022-08-19T09:46:11;24.80;;;19.52;;
40290;SDS011;26000;48.304;13.626;2022-08-19T09:48:38;21.33;;;18.05;;
40290;SDS011;26000;48.304;13.626;2022-08-19T09:51:06;21.23;;;18.95;;
40290;SDS011;26000;48.304;13.626;2022-08-19T09:53:37;19.50;;;16.85;;
40290;SDS011;26000;48.304;13.626;2022-08-19T09:56:04;18.42;;;16.33;;
40290;SDS011;26000;48.304;13.626;2022-08-19T09:58:31;18.60;;;16.70;;
40290;SDS011;26000;48.304;13.626;2022-08-19T10:00:57;22.65;;;18.33;;
40290;SDS011;26000;48.304;13.626;2022-08-19T10:03:25;20.05;;;17.95;;
40290;SDS011;26000;48.304;13.626;2022-08-19T10:05:53;18.17;;;15.60;;
40290;SDS011;26000;48.304;13.626;2022-08-19T10:08:20;22.13;;;18.25;;
40290;SDS011;26000;48.304;13.626;2022-08-19T10:10:48;18.15;;;15.98;;
40290;SDS011;26000;48.304;13.626;2022-08-19T10:13:16;21.95;;;17.38;;
40290;SDS011;26000;48.304;13.626;2022-08-19T10:15:45;17.60;;;15.70;;
40290;SDS011;26000;48.304;13.626;2022-08-19T10:18:10;18.23;;;16.33;;
40290;SDS011;26000;48.304;13.626;2022-08-19T10:20:36;18.15;;;14.75;;
40290;SDS011;26000;48.304;13.626;2022-08-19T10:23:02;15.82;;;12.85;;
40290;SDS011;26000;48.304;13.626;2022-08-19T10:25:28;15.57;;;12.88;;
40290;SDS011;26000;48.304;13.626;2022-08-19T10:27:54;14.00;;;12.55;;
40290;SDS011;26000;48.304;13.626;2022-08-19T10:30:20;16.15;;;13.00;;
40290;SDS011;26000;48.304;13.626;2022-08-19T10:32:46;15.00;;;13.40;;
40290;SDS011;26000;48.304;13.626;2022-08-19T10:35:12;16.23;;;13.95;;
40290;SDS011;26000;48.304;13.626;2022-08-19T10:37:38;15.40;;;13.80;;
40290;SDS011;26000;48.304;13.626;2022-08-19T10:40:05;16.38;;;14.63;;
40290;SDS011;26000;48.304;13.626;2022-08-19T10:42:33;17.35;;;15.45;;
40290;SDS011;26000;48.304;13.626;2022-08-19T10:44:59;16.77;;;14.63;;
40290;SDS011;26000;48.304;13.626;2022-08-19T10:47:26;16.38;;;14.57;;
40290;SDS011;26000;48.304;13.626;2022-08-19T10:49:52;14.23;;;12.25;;
40290;SDS011;26000;48.304;13.626;2022-08-19T10:52:37;17.27;;;13.00;;
40290;SDS011;26000;48.304;13.626;2022-08-19T10:55:08;14.23;;;12.73;;
40290;SDS011;26000;48.304;13.626;2022-08-19T10:57:53;16.48;;;12.20;;
40290;SDS011;26000;48.304;13.626;2022-08-19T11:00:20;14.75;;;13.07;;
40290;SDS011;26000;48.304;13.626;2022-08-19T11:02:47;13.60;;;12.20;;
40290;SDS011;26000;48.304;13.626;2022-08-19T11:05:12;16.42;;;13.20;;
40290;SDS011;26000;48.304;13.626;2022-08-19T11:07:39;13.27;;;11.90;;
40290;SDS011;26000;48.304;13.626;2022-08-19T11:10:07;13.77;;;10.93;;
40290;SDS011;26000;48.304;13.626;2022-08-19T11:12:36;12.73;;;11.30;;
40290;SDS011;26000;48.304;13.626;2022-08-19T11:15:04;11.75;;;9.38;;
40290;SDS011;26000;48.304;13.626;2022-08-19T11:17:36;11.27;;;9.70;;
40290;SDS011;26000;48.304;13.626;2022-08-19T11:20:06;10.68;;;9.57;;
40290;SDS011;26000;48.304;13.626;2022-08-19T11:22:33;12.57;;;11.27;;
40290;SDS011;26000;48.304;13.626;2022-08-19T11:24:59;14.90;;;13.20;;
40290;SDS011;26000;48.304;13.626;2022-08-19T11:27:25;13.43;;;10.93;;
40290;SDS011;26000;48.304;13.626;2022-08-19T11:29:51;12.38;;;10.88;;
40290;SDS011;26000;48.304;13.626;2022-08-19T11:32:17;12.20;;;10.93;;
40290;SDS011;26000;48.304;13.626;2022-08-19T11:34:43;9.93;;;8.95;;
40290;SDS011;26000;48.304;13.626;2022-08-19T11:37:08;10.40;;;9.40;;
40290;SDS011;26000;48.304;13.626;2022-08-19T11:39:35;12.00;;;9.02;;
40290;SDS011;26000;48.304;13.626;2022-08-19T11:42:02;10.00;;;8.65;;
40290;SDS011;26000;48.304;13.626;2022-08-19T11:44:48;9.35;;;8.20;;
40290;SDS011;26000;48.304;13.626;2022-08-19T11:47:14;10.05;;;8.60;;
40290;SDS011;26000;48.304;13.626;2022-08-19T11:49:40;11.23;;;8.52;;
40290;SDS011;26000;48.304;13.626;2022-08-19T11:52:06;10.77;;;9.48;;
40290;SDS011;26000;48.304;13.626;2022-08-19T11:54:32;11.88;;;8.93;;
40290;SDS011;26000;48.304;13.626;2022-08-19T11:56:58;8.27;;;7.45;;
40290;SDS011;26000;48.304;13.626;2022-08-19T11:59:24;10.57;;;8.55;;
40290;SDS011;26000;48.304;13.626;2022-08-19T12:01:51;15.13;;;9.07;;
40290;SDS011;26000;48.304;13.626;2022-08-19T12:04:17;9.10;;;8.20;;
40290;SDS011;26000;48.304;13.626;2022-08-19T12:06:42;10.73;;;8.23;;
40290;SDS011;26000;48.304;13.626;2022-08-19T12:09:09;9.40;;;8.30;;
40290;SDS011;26000;48.304;13.626;2022-08-19T12:11:36;11.13;;;9.30;;
40290;SDS011;26000;48.304;13.626;2022-08-19T12:14:02;9.75;;;8.57;;
40290;SDS011;26000;48.304;13.626;2022-08-19T12:16:29;11.27;;;8.60;;
40290;SDS011;26000;48.304;13.626;2022-08-19T12:18:56;12.90;;;9.65;;
40290;SDS011;26000;48.304;13.626;2022-08-19T12:21:25;11.05;;;8.60;;
40290;SDS011;26000;48.304;13.626;2022-08-19T12:23:54;10.63;;;8.10;;
40290;SDS011;26000;48.304;13.626;2022-08-19T12:26:21;9.85;;;8.13;;
40290;SDS011;26000;48.304;13.626;2022-08-19T12:28:48;11.00;;;8.95;;
40290;SDS011;26000;48.304;13.626;2022-08-19T12:31:14;8.70;;;7.80;;
40290;SDS011;26000;48.304;13.626;2022-08-19T12:33:40;9.55;;;7.72;;
40290;SDS011;26000;48.304;13.626;2022-08-19T12:36:07;12.10;;;8.52;;
40290;SDS011;26000;48.304;13.626;2022-08-19T12:38:39;9.43;;;8.15;;
40290;SDS011;26000;48.304;13.626;2022-08-19T12:41:05;8.25;;;7.28;;
40290;SDS011;26000;48.304;13.626;2022-08-19T12:43:35;11.90;;;8.27;;
40290;SDS011;26000;48.304;13.626;2022-08-19T12:46:03;8.38;;;6.78;;
40290;SDS011;26000;48.304;13.626;2022-08-19T12:48:33;8.65;;;7.30;;
40290;SDS011;26000;48.304;13.626;2022-08-19T12:50:59;8.05;;;7.10;;
40290;SDS011;26000;48.304;13.626;2022-08-19T12:53:26;8.82;;;7.82;;
40290;SDS011;26000;48.304;13.626;2022-08-19T12:55:56;10.13;;;6.78;;
40290;SDS011;26000;48.304;13.626;2022-08-19T12:58:24;8.27;;;7.43;;
40290;SDS011;26000;48.304;13.626;2022-08-19T13:00:50;7.95;;;7.00;;
40290;SDS011;26000;48.304;13.626;2022-08-19T13:03:16;9.20;;;8.10;;
40290;SDS011;26000;48.304;13.626;2022-08-19T13:05:42;8.40;;;7.20;;
40290;SDS011;26000;48.304;13.626;2022-08-19T13:08:07;9.20;;;7.65;;
40290;SDS011;26000;48.304;13.626;2022-08-19T13:10:34;8.05;;;7.25;;
40290;SDS011;26000;48.304;13.626;2022-08-19T13:13:01;7.38;;;6.28;;
40290;SDS011;26000;48.304;13.626;2022-08-19T13:15:32;7.53;;;6.72;;
40290;SDS011;26000;48.304;13.626;2022-08-19T13:17:59;7.32;;;6.40;;
40290;SDS011;26000;48.304;13.626;2022-08-19T13:20:25;6.70;;;6.00;;
40290;SDS011;26000;48.304;13.626;2022-08-19T13:22:51;6.63;;;5.97;;
40290;SDS011;26000;48.304;13.626;2022-08-19T13:25:16;6.72;;;5.80;;
40290;SDS011;26000;48.304;13.626;2022-08-19T13:27:44;6.85;;;6.25;;
40290;SDS011;26000;48.304;13.626;2022-08-19T13:30:11;7.95;;;6.55;;
40290;SDS011;26000;48.304;13.626;2022-08-19T13:32:56;9.00;;;6.85;;
40290;SDS011;26000;48.304;13.626;2022-08-19T13:35:49;8.05;;;6.28;;
40290;SDS011;26000;48.304;13.626;2022-08-19T13:38:20;8.80;;;7.15;;
40290;SDS011;26000;48.304;13.626;2022-08-19T13:40:46;6.05;;;5.45;;
40290;SDS011;26000;48.304;13.626;2022-08-19T13:43:15;6.00;;;5.40;;
40290;SDS011;26000;48.304;13.626;2022-08-19T13:45:42;5.80;;;5.30;;
40290;SDS011;26000;48.304;13.626;2022-08-19T13:48:08;7.30;;;5.95;;
40290;SDS011;26000;48.304;13.626;2022-08-19T13:50:35;6.53;;;5.78;;
40290;SDS011;26000;48.304;13.626;2022-08-19T13:53:09;8.18;;;5.70;;
40290;SDS011;26000;48.304;13.626;2022-08-19T13:55:40;8.05;;;5.88;;
40290;SDS011;26000;48.304;13.626;2022-08-19T13:58:07;7.40;;;5.70;;
40290;SDS011;26000;48.304;13.626;2022-08-19T14:00:34;6.18;;;5.50;;
40290;SDS011;26000;48.304;13.626;2022-08-19T14:03:06;6.97;;;6.28;;
40290;SDS011;26000;48.304;13.626;2022-08-19T14:05:36;7.90;;;6.20;;
40290;SDS011;26000;48.304;13.626;2022-08-19T14:08:02;9.45;;;5.80;;
40290;SDS011;26000;48.304;13.626;2022-08-19T14:10:28;7.13;;;6.20;;
40290;SDS011;26000;48.304;13.626;2022-08-19T14:12:56;6.70;;;5.53;;
40290;SDS011;26000;48.304;13.626;2022-08-19T14:15:24;8.07;;;6.20;;
40290;SDS011;26000;48.304;13.626;2022-08-19T14:17:51;6.47;;;5.80;;
40290;SDS011;26000;48.304;13.626;2022-08-19T14:20:17;8.40;;;6.90;;
40290;SDS011;26000;48.304;13.626;2022-08-19T14:22:43;9.05;;;6.10;;
40290;SDS011;26000;48.304;13.626;2022-08-19T14:25:12;8.98;;;6.20;;
40290;SDS011;26000;48.304;13.626;2022-08-19T14:27:42;7.55;;;5.85;;
40290;SDS011;26000;48.304;13.626;2022-08-19T14:30:09;6.75;;;5.90;;
40290;SDS011;26000;48.304;13.626;2022-08-19T14:32:37;6.80;;;5.90;;
40290;SDS011;26000;48.304;13.626;2022-08-19T14:35:03;7.30;;;6.05;;
40290;SDS011;26000;48.304;13.626;2022-08-19T14:37:29;7.32;;;5.60;;
40290;SDS011;26000;48.304;13.626;2022-08-19T14:39:55;6.20;;;5.45;;